createdAt,value
2024-02-22T00:00:04.017Z,11.35
2024-02-22T00:09:56.215Z,11.24
2024-02-22T00:19:38.478Z,11.63
2024-02-22T00:29:20.505Z,11.59
2024-02-22T00:39:04.926Z,11.81
2024-02-22T00:48:47.037Z,11.68
2024-02-22T00:58:29.101Z,11.62
2024-02-22T01:08:14.300Z,11.50
2024-02-22T01:17:57.159Z,11.27
2024-02-22T01:27:40.259Z,11.76
2024-02-22T01:37:22.258Z,11.84
2024-02-22T01:47:05.415Z,11.95
2024-02-22T01:56:49.098Z,12.07
2024-02-22T02:06:31.123Z,11.74
2024-02-22T02:16:16.556Z,11.93
2024-02-22T02:26:05.160Z,11.92
2024-02-22T02:35:47.976Z,12.08
2024-02-22T02:45:34.835Z,12.05
2024-02-22T02:55:17.065Z,11.92
2024-02-22T03:04:59.280Z,12.15
2024-02-22T03:14:42.652Z,12.08
2024-02-22T03:24:28.106Z,12.03
2024-02-22T03:34:10.057Z,12.26
2024-02-22T03:43:52.828Z,12.34
2024-02-22T03:53:36.557Z,12.30
2024-02-22T04:03:18.717Z,12.46
2024-02-22T04:13:00.872Z,12.50
2024-02-22T04:22:50.630Z,12.53
2024-02-22T04:32:32.968Z,12.63
2024-02-22T04:42:16.137Z,12.57
2024-02-22T04:52:00.027Z,12.49
2024-02-22T05:01:43.296Z,12.39
2024-02-22T05:11:27.290Z,12.55
2024-02-22T05:21:09.894Z,12.77
2024-02-22T05:30:55.604Z,12.55
2024-02-22T05:40:40.259Z,12.33
2024-02-22T05:50:24.710Z,12.10
2024-02-22T06:00:09.167Z,12.42
2024-02-22T06:09:55.149Z,12.28
2024-02-22T06:19:37.156Z,12.62
2024-02-22T06:29:19.132Z,12.45
2024-02-22T06:39:01.051Z,12.78
2024-02-22T06:48:43.309Z,12.65
2024-02-22T06:58:26.275Z,12.95
2024-02-22T07:08:08.850Z,12.83
2024-02-22T07:17:51.373Z,12.88
2024-02-22T07:27:34.316Z,13.11
2024-02-22T07:37:16.978Z,12.66
2024-02-22T07:46:59.012Z,13.22
2024-02-22T07:56:41.930Z,13.14
2024-02-22T08:06:23.924Z,13.21
2024-02-22T08:16:07.984Z,13.39
2024-02-22T08:25:53.294Z,13.12
2024-02-22T08:35:36.120Z,13.47
2024-02-22T08:45:19.206Z,12.52
2024-02-22T08:55:01.881Z,13.49
2024-02-22T09:04:44.587Z,13.61
2024-02-22T09:14:26.936Z,13.94
2024-02-22T09:24:10.568Z,14.22
2024-02-22T09:33:53.261Z,14.54
2024-02-22T09:43:37.224Z,14.50
2024-02-22T09:53:22.773Z,15.71
2024-02-22T10:03:05.122Z,16.01
2024-02-22T10:12:51.450Z,15.67
2024-02-22T10:22:37.243Z,16.42
2024-02-22T10:32:20.527Z,16.90
2024-02-22T10:42:05.345Z,16.96
2024-02-22T10:51:49.844Z,17.82
2024-02-22T11:01:34.467Z,17.78
2024-02-22T11:11:31.194Z,17.28
2024-02-22T11:21:14.357Z,17.35
2024-02-22T11:31:00.298Z,17.74
2024-02-22T11:40:43.491Z,17.47
2024-02-22T11:50:28.346Z,17.41
2024-02-22T12:00:11.385Z,17.57
2024-02-22T12:09:56.771Z,17.07
2024-02-22T12:19:39.426Z,17.53
2024-02-22T12:29:23.045Z,16.73
2024-02-22T12:39:06.732Z,17.27
2024-02-22T12:48:49.493Z,17.28
2024-02-22T12:58:31.583Z,17.23
2024-02-22T13:08:19.992Z,17.23
2024-02-22T13:18:08.273Z,16.75
2024-02-22T13:27:50.764Z,16.82
2024-02-22T13:37:39.465Z,16.87
2024-02-22T13:47:21.647Z,16.84
2024-02-22T13:57:05.535Z,16.08
2024-02-22T14:06:49.965Z,16.18
2024-02-22T14:16:32.754Z,16.25
2024-02-22T14:26:14.670Z,16.00
2024-02-22T14:35:58.417Z,15.74
2024-02-22T14:45:41.078Z,15.00
2024-02-22T14:55:23.888Z,14.89
2024-02-22T15:05:06.768Z,14.95
2024-02-22T15:14:48.953Z,15.03
2024-02-22T15:24:34.114Z,14.76
2024-02-22T15:34:16.551Z,14.96
2024-02-22T15:43:58.681Z,14.74
2024-02-22T15:53:41.492Z,14.67
2024-02-22T16:03:42.755Z,14.90
2024-02-22T16:13:29.339Z,13.87
2024-02-22T16:23:21.140Z,15.09
2024-02-22T16:33:11.432Z,14.99
2024-02-22T16:42:53.525Z,14.92
2024-02-22T16:52:37.394Z,15.09
2024-02-22T17:02:21.657Z,14.82
2024-02-22T17:12:04.461Z,14.60
2024-02-22T17:21:51.425Z,14.79
2024-02-22T17:31:33.862Z,14.25
2024-02-22T17:41:19.656Z,13.84
2024-02-22T17:51:01.721Z,13.22
2024-02-22T18:00:46.603Z,13.04
2024-02-22T18:10:34.457Z,13.75
2024-02-22T18:20:21.517Z,14.15
2024-02-22T18:30:04.443Z,14.24
2024-02-22T18:39:46.418Z,14.68
2024-02-22T18:49:30.085Z,14.60
2024-02-22T18:59:12.998Z,14.40
2024-02-22T19:08:58.273Z,14.83
2024-02-22T19:18:41.204Z,12.06
2024-02-22T19:28:24.506Z,11.87
2024-02-22T19:38:15.333Z,11.67
2024-02-22T19:47:58.137Z,11.73
2024-02-22T19:57:40.314Z,11.57
2024-02-22T20:07:24.509Z,11.29
2024-02-22T20:17:06.589Z,11.27
2024-02-22T20:26:48.658Z,11.22
2024-02-22T20:36:31.922Z,11.43
2024-02-22T20:46:14.447Z,10.60
2024-02-22T20:55:57.442Z,10.54
2024-02-22T21:05:39.644Z,10.96
2024-02-22T21:15:23.742Z,10.25
2024-02-22T21:25:06.685Z,10.31
2024-02-22T21:34:48.926Z,10.47
2024-02-22T21:44:32.683Z,10.35
2024-02-22T21:54:15.309Z,10.23
2024-02-22T22:03:57.928Z,10.20
2024-02-22T22:13:44.893Z,10.22
2024-02-22T22:23:28.474Z,10.36
2024-02-22T22:33:12.258Z,9.65
2024-02-22T22:42:57.436Z,9.63
2024-02-22T22:52:40.445Z,9.65
2024-02-22T23:02:22.627Z,9.56
2024-02-22T23:12:05.323Z,9.29
2024-02-22T23:21:47.474Z,9.02
2024-02-22T23:31:30.203Z,8.92
2024-02-22T23:41:22.465Z,9.62
2024-02-22T23:51:11.972Z,9.94
